Time;durP1;ratioP1;P1;durP2;ratioP2;P2;SDS_P1;SDS_P2;PMS_P1;PMS_P2;Temp;Humidity;BMP_temperature;BMP_pressure;BME280_temperature;BME280_humidity;BME280_pressure;Samples;Min_cycle;Max_cycle;Signal;HPM_P1;HPM_P2
2021/06/22 00:00:23;;;;;;;30.77;11.43;;;17.10;78.70;;;;;;4957698;28;20030;-71
2021/06/22 00:02:49;;;;;;;26.10;12.65;;;17.10;78.60;;;;;;4956680;28;20078;-71
2021/06/22 00:05:17;;;;;;;29.67;12.65;;;17.00;78.70;;;;;;4958354;28;20055;-70
2021/06/22 00:07:44;;;;;;;30.50;11.77;;;17.00;79.40;;;;;;4957553;28;20085;-70
2021/06/22 00:10:10;;;;;;;30.85;11.93;;;17.00;78.60;;;;;;4957719;29;20039;-71
2021/06/22 00:12:36;;;;;;;28.67;12.88;;;17.00;78.30;;;;;;4958218;29;20097;-71
2021/06/22 00:15:04;;;;;;;25.80;11.73;;;17.10;78.10;;;;;;4958522;29;20059;-70
2021/06/22 00:17:29;;;;;;;28.65;10.38;;;17.10;78.00;;;;;;4956627;28;20066;-70
2021/06/22 00:19:55;;;;;;;24.02;11.18;;;17.10;78.60;;;;;;4967062;28;20474;-71
2021/06/22 00:22:21;;;;;;;23.10;10.43;;;17.10;78.80;;;;;;4962174;28;20027;-71
2021/06/22 00:24:47;;;;;;;27.23;12.68;;;17.10;78.20;;;;;;4962259;28;20059;-71
2021/06/22 00:27:13;;;;;;;21.33;10.70;;;17.10;77.90;;;;;;4958106;28;20127;-71
2021/06/22 00:29:43;;;;;;;27.50;12.38;;;17.10;77.50;;;;;;4960192;28;20110;-71
2021/06/22 00:32:10;;;;;;;20.17;10.43;;;17.10;77.60;;;;;;4961398;29;20031;-71
2021/06/22 00:34:37;;;;;;;24.88;10.63;;;17.10;77.10;;;;;;4956705;28;20031;-71
2021/06/22 00:37:03;;;;;;;23.10;11.50;;;17.10;77.50;;;;;;4961500;28;20035;-71
2021/06/22 00:39:29;;;;;;;18.98;10.40;;;17.10;77.50;;;;;;4964959;28;20043;-71
2021/06/22 00:41:55;;;;;;;29.02;10.90;;;17.20;77.20;;;;;;4960104;28;20023;-71
2021/06/22 00:44:20;;;;;;;21.15;10.75;;;17.20;77.30;;;;;;4953982;28;20047;-71
2021/06/22 00:46:46;;;;;;;21.70;10.88;;;17.20;77.90;;;;;;4961215;29;20051;-71
2021/06/22 00:49:12;;;;;;;26.52;10.52;;;17.20;77.50;;;;;;4960500;29;20066;-71
2021/06/22 00:51:38;;;;;;;30.63;11.35;;;17.20;77.60;;;;;;4960681;29;20019;-71
2021/06/22 00:54:04;;;;;;;19.85;10.38;;;17.20;77.50;;;;;;4959274;29;20443;-71
2021/06/22 00:56:30;;;;;;;18.70;10.98;;;17.20;77.20;;;;;;4961411;28;20042;-71
2021/06/22 00:58:56;;;;;;;17.50;9.95;;;17.20;77.00;;;;;;4961923;28;20031;-71
2021/06/22 01:01:22;;;;;;;22.05;10.25;;;17.20;76.90;;;;;;4960305;28;20024;-71
2021/06/22 01:03:48;;;;;;;14.65;8.95;;;17.20;76.70;;;;;;4961521;29;20069;-71
2021/06/22 01:06:14;;;;;;;17.42;8.80;;;17.30;76.60;;;;;;4960898;28;20015;-71
2021/06/22 01:08:40;;;;;;;12.55;9.13;;;17.30;76.60;;;;;;4957956;28;20058;-70
2021/06/22 01:11:06;;;;;;;14.93;9.35;;;17.30;76.30;;;;;;4958671;29;20027;-71
2021/06/22 01:13:32;;;;;;;17.40;10.05;;;17.30;76.80;;;;;;4961223;29;20031;-71
2021/06/22 01:15:58;;;;;;;18.30;11.00;;;17.30;78.50;;;;;;4960666;28;20031;-71
2021/06/22 01:18:23;;;;;;;19.80;11.25;;;17.30;78.20;;;;;;4967308;28;20058;-71
2021/06/22 01:20:54;;;;;;;20.95;11.35;;;17.30;78.00;;;;;;4959705;28;20062;-71
2021/06/22 01:23:20;;;;;;;20.95;10.68;;;17.30;78.30;;;;;;4972132;28;20030;-71
2021/06/22 01:25:45;;;;;;;17.98;10.07;;;17.20;78.20;;;;;;4961665;28;20015;-71
2021/06/22 01:28:11;;;;;;;24.17;11.70;;;17.20;78.20;;;;;;4960325;29;20027;-71
2021/06/22 01:30:37;;;;;;;19.85;10.18;;;17.20;78.00;;;;;;4961021;28;20089;-71
2021/06/22 01:33:05;;;;;;;19.98;11.27;;;17.20;78.90;;;;;;4960310;28;20054;-71
2021/06/22 01:35:31;;;;;;;20.65;10.90;;;17.20;78.10;;;;;;4954512;29;20034;-71
2021/06/22 01:38:06;;;;;;;23.42;11.23;;;17.20;77.70;;;;;;4959351;28;20094;-71
2021/06/22 01:40:31;;;;;;;20.13;10.55;;;17.10;77.40;;;;;;4959105;28;20054;-71
2021/06/22 01:42:59;;;;;;;17.70;11.05;;;17.20;77.50;;;;;;4960126;28;20045;-71
2021/06/22 01:45:26;;;;;;;18.63;11.15;;;17.20;77.50;;;;;;4960468;29;20407;-71
2021/06/22 01:47:52;;;;;;;19.90;11.30;;;17.10;77.20;;;;;;4964693;28;20769;-71
2021/06/22 01:50:19;;;;;;;15.73;9.95;;;17.10;77.00;;;;;;4959690;29;20090;-71
2021/06/22 01:52:47;;;;;;;18.33;10.50;;;17.10;76.90;;;;;;4960653;28;20023;-71
2021/06/22 01:57:58;;;;;;;17.33;10.50;;;17.10;76.70;;;;;;4958217;28;20406;-71
2021/06/22 02:00:24;;;;;;;22.60;11.23;;;17.10;76.90;;;;;;4960184;29;20104;-71
2021/06/22 02:02:50;;;;;;;21.40;10.68;;;17.10;77.40;;;;;;4957627;28;20027;-71
2021/06/22 02:05:16;;;;;;;21.15;10.93;;;17.10;77.20;;;;;;4959659;28;20023;-71
2021/06/22 02:07:42;;;;;;;20.67;10.60;;;17.10;77.00;;;;;;4959575;29;20034;-71
2021/06/22 02:10:09;;;;;;;21.13;11.48;;;17.00;77.00;;;;;;4959531;28;20035;-71
2021/06/22 02:12:36;;;;;;;23.30;12.20;;;17.10;76.80;;;;;;4959894;29;20549;-71
2021/06/22 02:15:03;;;;;;;17.58;10.68;;;17.10;77.30;;;;;;4959949;29;20035;-71
2021/06/22 02:17:29;;;;;;;19.67;11.43;;;17.10;77.00;;;;;;4959510;28;20375;-70
2021/06/22 02:19:55;;;;;;;18.88;10.70;;;17.00;77.50;;;;;;4959134;29;20106;-70
2021/06/22 02:22:20;;;;;;;17.85;10.30;;;17.00;76.90;;;;;;4959217;28;20074;-71
2021/06/22 02:24:46;;;;;;;20.90;11.25;;;17.00;76.60;;;;;;4959455;29;20054;-71
2021/06/22 02:27:26;;;;;;;12.55;9.85;;;17.00;77.30;;;;;;4958125;29;20501;-71
2021/06/22 02:29:52;;;;;;;22.98;10.88;;;17.00;78.60;;;;;;4959231;28;20474;-71
2021/06/22 02:32:18;;;;;;;19.13;10.77;;;17.00;78.40;;;;;;4959714;29;20090;-71
2021/06/22 02:34:44;;;;;;;16.95;11.05;;;17.00;78.40;;;;;;4955815;29;20122;-71
2021/06/22 02:37:10;;;;;;;19.70;10.40;;;17.00;78.00;;;;;;4958272;29;20505;-71
2021/06/22 02:39:37;;;;;;;21.33;10.90;;;17.00;77.90;;;;;;4969129;28;20023;-71
2021/06/22 02:42:03;;;;;;;18.98;10.60;;;17.00;77.90;;;;;;4958728;28;20035;-71
2021/06/22 02:44:29;;;;;;;16.65;11.05;;;17.00;78.30;;;;;;4958303;28;20514;-71
2021/06/22 02:46:55;;;;;;;24.40;11.98;;;17.00;78.60;;;;;;4958330;29;20110;-71
2021/06/22 02:49:21;;;;;;;23.20;11.75;;;16.90;78.20;;;;;;4959371;28;20038;-71
2021/06/22 02:51:46;;;;;;;19.85;10.40;;;16.90;77.50;;;;;;4959430;28;20098;-71
2021/06/22 02:54:12;;;;;;;23.60;12.82;;;16.90;77.90;;;;;;4957896;29;20031;-71
2021/06/22 02:56:38;;;;;;;23.42;12.77;;;17.00;77.80;;;;;;4957154;29;20549;-71
2021/06/22 02:59:04;;;;;;;22.40;13.18;;;16.90;77.80;;;;;;4957561;28;20046;-71
2021/06/22 03:01:30;;;;;;;24.15;11.13;;;16.90;78.10;;;;;;4957584;28;20077;-71
2021/06/22 03:03:55;;;;;;;20.10;11.90;;;17.00;77.60;;;;;;4959364;28;20027;-71
2021/06/22 03:06:21;;;;;;;19.33;10.93;;;16.90;77.80;;;;;;4958242;28;20059;-71
2021/06/22 03:08:47;;;;;;;22.73;11.93;;;16.90;77.60;;;;;;4958881;28;20031;-70
2021/06/22 03:11:13;;;;;;;20.75;12.05;;;17.00;77.80;;;;;;4958048;28;20038;-70
2021/06/22 03:13:38;;;;;;;18.10;11.65;;;17.00;77.60;;;;;;4959607;29;20368;-70
2021/06/22 03:16:04;;;;;;;19.52;11.25;;;17.00;77.90;;;;;;4953714;28;20035;-71
2021/06/22 03:18:30;;;;;;;22.13;11.93;;;17.00;77.60;;;;;;4958504;28;20434;-70
2021/06/22 03:20:56;;;;;;;19.00;10.75;;;17.00;77.60;;;;;;4958855;28;20027;-70
2021/06/22 03:23:22;;;;;;;20.35;10.93;;;17.00;77.50;;;;;;4958289;28;20052;-71
2021/06/22 03:25:47;;;;;;;18.92;11.10;;;16.90;77.50;;;;;;4957384;29;20030;-71
2021/06/22 03:28:13;;;;;;;24.65;13.45;;;17.00;78.40;;;;;;4959093;29;20406;-70
2021/06/22 03:30:42;;;;;;;25.52;12.70;;;16.90;79.00;;;;;;4959119;28;20028;-70
2021/06/22 03:33:07;;;;;;;23.02;12.85;;;17.00;79.40;;;;;;4957755;29;20028;-71
2021/06/22 03:35:33;;;;;;;24.40;12.20;;;16.90;79.30;;;;;;4947188;29;20038;-70
2021/06/22 03:37:59;;;;;;;25.52;12.48;;;16.90;79.50;;;;;;4958271;29;21001;-71
2021/06/22 03:40:25;;;;;;;20.83;12.00;;;16.90;79.40;;;;;;4958326;28;20098;-70
2021/06/22 03:42:51;;;;;;;24.15;11.88;;;16.80;79.50;;;;;;4958310;29;20462;-70
2021/06/22 03:45:17;;;;;;;21.77;11.27;;;16.80;79.70;;;;;;4958057;29;20048;-71
2021/06/22 03:47:43;;;;;;;18.58;10.55;;;16.90;79.90;;;;;;4959041;29;20038;-70
2021/06/22 03:50:09;;;;;;;20.73;10.00;;;16.80;80.10;;;;;;4958694;28;20020;-70
2021/06/22 03:52:35;;;;;;;17.08;8.88;;;16.80;80.60;;;;;;4957874;28;20054;-70
2021/06/22 03:55:01;;;;;;;17.42;10.52;;;16.80;80.00;;;;;;4962145;28;20059;-71
2021/06/22 03:57:27;;;;;;;15.73;8.07;;;16.80;79.50;;;;;;4962307;29;20487;-71
2021/06/22 03:59:54;;;;;;;14.80;8.05;;;16.80;79.90;;;;;;4962418;28;20023;-71
2021/06/22 04:02:21;;;;;;;14.25;7.60;;;16.70;79.30;;;;;;4962524;28;20041;-71
2021/06/22 04:04:47;;;;;;;9.82;5.35;;;16.70;79.70;;;;;;4962048;28;20079;-70
2021/06/22 04:07:13;;;;;;;8.27;4.85;;;16.70;80.10;;;;;;4962448;28;20031;-71
2021/06/22 04:09:38;;;;;;;7.82;4.55;;;16.70;79.90;;;;;;4961990;29;20023;-71
2021/06/22 04:12:04;;;;;;;8.23;4.40;;;16.60;80.00;;;;;;4960837;29;20047;-70
2021/06/22 04:14:30;;;;;;;9.52;3.88;;;16.60;80.00;;;;;;4962420;28;20049;-70
2021/06/22 04:16:56;;;;;;;9.65;4.97;;;16.60;80.30;;;;;;4961711;28;20034;-71
2021/06/22 04:19:22;;;;;;;9.77;4.90;;;16.60;79.90;;;;;;4962029;28;20059;-71
2021/06/22 04:21:47;;;;;;;9.63;4.85;;;16.60;79.70;;;;;;4962119;28;20033;-70
2021/06/22 04:24:13;;;;;;;12.77;6.00;;;16.50;80.30;;;;;;4961896;29;20053;-71
2021/06/22 04:26:39;;;;;;;11.48;5.75;;;16.50;80.50;;;;;;4960790;28;20038;-71
2021/06/22 04:29:05;;;;;;;13.40;7.05;;;16.50;80.30;;;;;;4962022;28;20024;-71
2021/06/22 04:31:31;;;;;;;20.58;9.05;;;16.50;79.60;;;;;;4962129;28;20078;-70
2021/06/22 04:33:56;;;;;;;17.42;8.95;;;16.50;79.80;;;;;;4959540;29;20057;-71
2021/06/22 04:36:22;;;;;;;16.83;9.18;;;16.40;80.00;;;;;;4961128;28;20139;-70
2021/06/22 04:38:48;;;;;;;21.42;9.85;;;16.40;79.90;;;;;;4961936;28;20022;-71
2021/06/22 04:41:14;;;;;;;21.25;10.82;;;16.40;79.90;;;;;;4960674;28;20038;-71
2021/06/22 04:43:40;;;;;;;20.83;10.38;;;16.40;79.30;;;;;;4961961;29;20071;-71
2021/06/22 04:46:06;;;;;;;23.67;10.70;;;16.30;79.80;;;;;;4961233;28;20086;-71
2021/06/22 04:48:31;;;;;;;22.58;9.93;;;16.30;79.20;;;;;;4961848;29;20102;-71
2021/06/22 04:50:58;;;;;;;22.13;10.57;;;16.30;79.00;;;;;;4961417;28;20035;-71
2021/06/22 04:53:26;;;;;;;26.30;11.07;;;16.30;79.10;;;;;;4961096;29;20031;-71
2021/06/22 04:55:53;;;;;;;23.88;10.27;;;16.30;79.10;;;;;;4949549;29;20054;-71
2021/06/22 04:58:19;;;;;;;22.58;10.15;;;16.20;79.70;;;;;;4960611;29;20043;-71
2021/06/22 05:00:45;;;;;;;23.50;9.45;;;16.20;78.90;;;;;;4961229;28;20035;-71
2021/06/22 05:03:10;;;;;;;25.08;9.43;;;16.30;78.70;;;;;;4961608;28;20027;-70
2021/06/22 05:05:36;;;;;;;21.30;8.52;;;16.20;79.50;;;;;;4960291;28;20086;-71
2021/06/22 05:08:02;;;;;;;23.15;9.40;;;16.20;78.90;;;;;;4961035;28;20114;-70
2021/06/22 05:10:28;;;;;;;24.25;8.90;;;16.20;78.90;;;;;;4960933;29;20099;-72
2021/06/22 05:12:54;;;;;;;17.15;8.13;;;16.20;79.00;;;;;;4961240;28;20023;-69
2021/06/22 05:15:20;;;;;;;20.00;8.50;;;16.20;78.70;;;;;;4960142;28;20031;-72
2021/06/22 05:17:46;;;;;;;19.90;8.68;;;16.20;78.60;;;;;;4959170;28;20037;-73
2021/06/22 05:20:12;;;;;;;17.85;8.70;;;16.20;78.60;;;;;;4959274;29;20106;-72
2021/06/22 05:22:37;;;;;;;19.23;9.18;;;16.20;78.50;;;;;;4960421;29;20027;-70
2021/06/22 05:25:05;;;;;;;16.15;7.75;;;16.20;78.60;;;;;;4959745;29;20023;-71
2021/06/22 05:27:30;;;;;;;17.80;8.18;;;16.20;78.40;;;;;;4954484;28;20023;-71
2021/06/22 05:29:56;;;;;;;18.08;8.10;;;16.20;78.60;;;;;;4960627;28;20062;-71
2021/06/22 05:32:22;;;;;;;15.23;7.28;;;16.20;78.50;;;;;;4960074;28;20058;-70
2021/06/22 05:34:48;;;;;;;19.00;7.97;;;16.20;79.00;;;;;;4953753;28;20544;-70
2021/06/22 05:37:14;;;;;;;12.82;7.05;;;16.10;78.70;;;;;;4960504;28;20024;-76
2021/06/22 05:39:40;;;;;;;15.23;6.65;;;16.10;78.60;;;;;;4959416;28;20023;-73
2021/06/22 05:42:06;;;;;;;12.82;6.80;;;16.10;79.20;;;;;;4959884;28;20027;-75
2021/06/22 05:44:32;;;;;;;17.05;7.82;;;16.10;78.60;;;;;;4959170;29;20486;-72
2021/06/22 05:46:58;;;;;;;14.43;6.75;;;16.00;78.30;;;;;;4960688;29;20012;-81
2021/06/22 05:49:24;;;;;;;17.55;6.10;;;16.00;79.00;;;;;;4959080;29;20513;-73
2021/06/22 05:51:51;;;;;;;12.73;5.78;;;16.10;79.60;;;;;;4955793;29;20491;-73
2021/06/22 05:54:17;;;;;;;13.25;5.82;;;16.10;78.90;;;;;;4959509;29;20031;-74
2021/06/22 05:56:43;;;;;;;14.23;6.18;;;16.10;78.60;;;;;;4959615;28;20569;-74
2021/06/22 05:59:08;;;;;;;14.63;6.00;;;16.00;78.90;;;;;;4960053;28;20418;-75
2021/06/22 06:01:34;;;;;;;13.80;6.43;;;16.10;78.90;;;;;;4958667;29;20059;-75
2021/06/22 06:04:00;;;;;;;11.98;6.45;;;16.10;78.70;;;;;;4959544;28;20486;-73
2021/06/22 06:06:26;;;;;;;30.60;17.80;;;16.10;78.60;;;;;;4958549;28;20027;-75
2021/06/22 06:08:52;;;;;;;13.10;6.60;;;16.00;78.50;;;;;;4953895;29;20027;-75
2021/06/22 06:11:18;;;;;;;17.17;5.63;;;16.10;78.60;;;;;;4949536;29;20028;-74
2021/06/22 06:13:43;;;;;;;12.35;5.00;;;16.10;78.80;;;;;;4948117;29;20035;-74
2021/06/22 06:16:09;;;;;;;11.75;4.72;;;16.10;78.70;;;;;;4948750;29;20035;-74
2021/06/22 06:18:35;;;;;;;7.65;4.43;;;16.10;78.80;;;;;;4949351;29;20086;-75
2021/06/22 06:21:01;;;;;;;11.25;4.18;;;16.10;78.70;;;;;;4950359;29;20032;-75
2021/06/22 06:24:01;;;;;;;9.25;3.85;;;16.10;78.40;;;;;;4951655;29;20031;-73
2021/06/22 06:26:21;;;;;;;13.63;4.23;;;16.10;78.40;;;;;;4961872;28;20043;-73
2021/06/22 06:28:56;;;;;;;8.60;3.80;;;16.10;79.00;;;;;;4964196;28;20354;-74
2021/06/22 06:31:22;;;;;;;8.95;3.78;;;16.10;78.60;;;;;;4955836;29;20077;-75
2021/06/22 06:33:48;;;;;;;7.38;3.38;;;16.10;78.80;;;;;;4953049;28;20031;-74
2021/06/22 06:36:15;;;;;;;8.82;3.22;;;16.00;78.80;;;;;;4946016;29;20040;-74
2021/06/22 06:38:41;;;;;;;7.88;3.08;;;16.10;78.90;;;;;;4958394;29;20035;-73
2021/06/22 06:41:07;;;;;;;5.75;3.00;;;16.10;78.80;;;;;;4958900;29;20023;-74
2021/06/22 06:43:34;;;;;;;8.05;2.92;;;16.10;79.30;;;;;;4950102;28;20119;-74
2021/06/22 06:46:00;;;;;;;6.60;2.47;;;16.10;78.70;;;;;;4951485;29;20034;-74
2021/06/22 06:48:26;;;;;;;5.95;2.63;;;16.10;79.10;;;;;;4959255;28;20031;-74
2021/06/22 06:50:52;;;;;;;6.47;2.90;;;16.10;79.00;;;;;;4959047;28;20430;-74
2021/06/22 06:53:18;;;;;;;10.02;2.72;;;16.10;78.90;;;;;;4958348;29;20042;-75
2021/06/22 06:55:47;;;;;;;5.28;2.20;;;16.10;79.00;;;;;;4957957;29;20031;-74
2021/06/22 06:58:13;;;;;;;8.30;2.88;;;16.00;79.30;;;;;;4958634;28;20035;-75
2021/06/22 07:00:39;;;;;;;7.50;2.50;;;16.00;79.20;;;;;;4958351;28;20027;-74
2021/06/22 07:03:06;;;;;;;7.07;2.78;;;16.00;78.90;;;;;;4959014;28;20032;-74
2021/06/22 07:05:33;;;;;;;7.13;2.38;;;16.00;79.00;;;;;;4949646;29;20023;-74
2021/06/22 07:07:59;;;;;;;7.28;2.80;;;16.00;78.90;;;;;;4958410;29;20023;-74
2021/06/22 07:10:26;;;;;;;6.18;2.90;;;16.00;79.10;;;;;;4956813;28;20023;-73
2021/06/22 07:12:55;;;;;;;5.70;2.33;;;16.10;79.40;;;;;;4958183;28;20038;-74
2021/06/22 07:15:21;;;;;;;6.18;2.78;;;16.00;78.90;;;;;;4959544;28;20028;-74
2021/06/22 07:17:48;;;;;;;5.97;2.30;;;16.10;78.90;;;;;;4957712;29;20567;-73
2021/06/22 07:20:15;;;;;;;5.82;2.42;;;16.10;79.00;;;;;;4959152;28;20099;-74
2021/06/22 07:22:41;;;;;;;7.97;2.40;;;16.10;79.00;;;;;;4956305;29;20035;-74
2021/06/22 07:25:07;;;;;;;5.53;2.40;;;16.10;78.70;;;;;;4956166;29;20027;-74
2021/06/22 07:27:33;;;;;;;6.97;2.25;;;16.10;78.70;;;;;;4958127;29;20031;-74
2021/06/22 07:29:59;;;;;;;6.93;2.30;;;16.10;79.00;;;;;;4959089;28;20549;-74
2021/06/22 07:32:25;;;;;;;3.97;1.95;;;16.20;79.00;;;;;;4958128;28;20031;-74
2021/06/22 07:34:51;;;;;;;7.22;2.22;;;16.10;79.30;;;;;;4947680;28;20158;-74
2021/06/22 07:37:17;;;;;;;6.60;2.10;;;16.20;79.10;;;;;;4958775;28;20067;-74
2021/06/22 07:39:43;;;;;;;4.50;1.88;;;16.10;79.00;;;;;;4957404;29;20096;-74
2021/06/22 07:42:09;;;;;;;6.30;1.70;;;16.10;79.30;;;;;;4957811;28;20032;-74
2021/06/22 07:44:35;;;;;;;6.13;1.58;;;16.10;79.40;;;;;;4957616;29;20111;-74
2021/06/22 07:47:01;;;;;;;4.18;1.58;;;16.10;79.40;;;;;;4958638;28;20471;-74
2021/06/22 07:49:27;;;;;;;4.88;2.30;;;16.10;79.20;;;;;;4956806;29;20082;-74
2021/06/22 07:51:52;;;;;;;9.48;3.20;;;16.10;79.30;;;;;;4958807;28;20106;-74
2021/06/22 07:54:19;;;;;;;3.83;1.88;;;16.10;80.00;;;;;;4958318;28;20019;-74
2021/06/22 07:56:45;;;;;;;5.80;1.77;;;16.10;79.50;;;;;;4957661;28;20498;-74
2021/06/22 07:59:10;;;;;;;4.38;1.50;;;16.10;79.40;;;;;;4958658;28;20040;-75
2021/06/22 08:01:36;;;;;;;4.43;1.60;;;16.10;79.40;;;;;;4958296;28;20030;-75
2021/06/22 08:04:02;;;;;;;4.78;1.77;;;16.10;79.20;;;;;;4958500;29;20034;-76
2021/06/22 08:06:28;;;;;;;5.47;1.85;;;16.10;79.20;;;;;;4958578;28;20042;-76
2021/06/22 08:08:54;;;;;;;5.55;1.50;;;16.10;80.10;;;;;;4956987;29;20027;-75
2021/06/22 08:11:19;;;;;;;4.65;1.48;;;16.10;79.90;;;;;;4956658;29;20038;-75
2021/06/22 08:13:45;;;;;;;3.95;1.58;;;16.10;79.70;;;;;;4958381;28;20062;-75
2021/06/22 08:16:11;;;;;;;3.10;1.40;;;16.10;80.20;;;;;;4958695;28;20533;-75
2021/06/22 08:18:37;;;;;;;6.65;1.50;;;16.10;80.30;;;;;;4958642;28;20055;-75
2021/06/22 08:21:04;;;;;;;4.35;1.40;;;16.00;79.80;;;;;;4957686;28;20028;-75
2021/06/22 08:23:30;;;;;;;4.95;1.52;;;16.00;80.30;;;;;;4956541;29;20023;-75
2021/06/22 08:25:56;;;;;;;5.22;1.50;;;16.00;80.30;;;;;;4954067;29;20024;-75
2021/06/22 08:28:22;;;;;;;5.70;1.95;;;16.00;80.30;;;;;;4957322;29;20082;-75
2021/06/22 08:30:49;;;;;;;4.43;1.60;;;16.00;80.30;;;;;;4956607;29;20035;-75
2021/06/22 08:33:15;;;;;;;4.70;1.42;;;16.00;79.60;;;;;;4950374;28;20019;-74
2021/06/22 08:35:41;;;;;;;5.32;2.13;;;16.00;80.20;;;;;;4958284;28;20749;-75
2021/06/22 08:38:09;;;;;;;5.43;1.92;;;16.00;79.90;;;;;;4958002;28;20094;-75
2021/06/22 08:40:37;;;;;;;3.70;1.40;;;16.00;80.10;;;;;;4960708;28;20019;-74
2021/06/22 08:43:03;;;;;;;4.68;1.75;;;16.00;80.30;;;;;;4960686;28;20055;-75
2021/06/22 08:45:28;;;;;;;4.68;1.27;;;16.00;80.00;;;;;;4962002;28;20028;-74
2021/06/22 08:47:55;;;;;;;5.10;1.73;;;16.00;80.30;;;;;;4959030;28;20036;-73
2021/06/22 08:50:21;;;;;;;27.15;16.20;;;16.10;80.00;;;;;;4961647;28;20031;-74
2021/06/22 08:52:47;;;;;;;7.07;2.78;;;16.20;80.30;;;;;;4961193;28;20039;-74
2021/06/22 08:55:26;;;;;;;4.90;1.60;;;16.30;80.30;;;;;;4960202;29;20100;-75
2021/06/22 08:58:04;;;;;;;5.18;1.40;;;16.30;80.00;;;;;;4951585;28;20379;-74
2021/06/22 09:00:35;;;;;;;4.43;1.60;;;16.40;79.60;;;;;;4953135;29;20371;-74
2021/06/22 09:03:04;;;;;;;4.50;1.50;;;16.50;80.00;;;;;;4952443;28;20502;-76
2021/06/22 09:05:30;;;;;;;4.45;1.48;;;16.50;79.90;;;;;;4958117;28;20056;-75
2021/06/22 09:07:57;;;;;;;4.32;1.55;;;16.60;80.10;;;;;;4951787;29;20515;-75
2021/06/22 09:10:29;;;;;;;3.25;1.33;;;16.70;79.60;;;;;;4950859;29;20041;-76
2021/06/22 09:12:57;;;;;;;3.33;1.20;;;16.80;79.10;;;;;;4958932;29;20019;-77
2021/06/22 09:15:29;;;;;;;2.97;1.30;;;16.80;79.50;;;;;;4961258;28;20119;-75
2021/06/22 09:17:57;;;;;;;4.05;1.55;;;16.90;78.90;;;;;;4956611;29;20023;-74
2021/06/22 09:20:37;;;;;;;3.20;1.30;;;16.90;78.40;;;;;;4959767;29;20394;-71
2021/06/22 09:23:12;;;;;;;3.47;1.38;;;17.00;78.70;;;;;;4960012;28;20035;-79
2021/06/22 09:25:38;;;;;;;4.57;1.60;;;17.00;78.40;;;;;;4957540;29;20032;-81
2021/06/22 09:28:05;;;;;;;4.28;1.50;;;17.10;78.10;;;;;;4961459;29;20097;-75
2021/06/22 09:30:45;;;;;;;3.75;1.60;;;17.10;78.30;;;;;;4948179;29;20040;-74
2021/06/22 09:33:34;;;;;;;5.25;1.40;;;17.20;77.80;;;;;;4960150;28;20460;-74
2021/06/22 09:36:08;;;;;;;2.95;1.40;;;17.30;77.70;;;;;;4955588;28;20047;-72
2021/06/22 09:38:41;;;;;;;4.28;1.60;;;17.30;77.40;;;;;;4957689;28;20032;-75
2021/06/22 09:41:18;;;;;;;4.88;2.05;;;17.30;77.40;;;;;;4950877;28;20027;-75
2021/06/22 09:44:11;;;;;;;5.60;1.83;;;17.30;77.40;;;;;;4957504;28;20138;-74
2021/06/22 09:46:46;;;;;;;5.10;1.75;;;17.30;76.80;;;;;;4950040;28;20040;-74
2021/06/22 09:49:15;;;;;;;4.63;2.00;;;17.20;76.80;;;;;;4960468;29;20030;-75
2021/06/22 09:51:52;;;;;;;5.15;2.17;;;17.20;77.40;;;;;;4959464;28;20063;-75
2021/06/22 09:54:32;;;;;;;5.50;2.55;;;17.20;76.80;;;;;;4957558;28;20095;-73
2021/06/22 09:57:25;;;;;;;7.10;2.58;;;17.10;76.50;;;;;;4954760;28;20028;-73
2021/06/22 09:59:55;;;;;;;6.88;2.83;;;17.10;77.00;;;;;;4957200;29;20062;-73
2021/06/22 10:02:22;;;;;;;9.15;3.08;;;17.10;77.00;;;;;;4950798;28;20034;-72
2021/06/22 10:05:00;;;;;;;8.65;2.92;;;17.10;77.10;;;;;;4957144;28;20023;-73
2021/06/22 10:07:28;;;;;;;4.72;2.60;;;17.00;76.90;;;;;;4954508;29;20494;-74
2021/06/22 10:10:02;;;;;;;7.20;2.75;;;17.00;77.00;;;;;;4960282;28;20042;-74
2021/06/22 10:12:30;;;;;;;8.02;2.70;;;16.90;76.00;;;;;;4957013;28;20031;-74
2021/06/22 10:15:02;;;;;;;9.10;2.80;;;16.90;76.60;;;;;;4960293;28;20051;-74
2021/06/22 10:17:31;;;;;;;6.30;2.80;;;16.90;76.80;;;;;;4959976;28;20449;-74
2021/06/22 10:19:59;;;;;;;8.85;3.42;;;16.90;76.80;;;;;;4959955;28;20027;-75
2021/06/22 10:22:27;;;;;;;7.13;2.72;;;16.90;76.70;;;;;;4959271;28;20023;-78
2021/06/22 10:24:56;;;;;;;6.10;2.85;;;16.90;76.70;;;;;;4965428;28;20449;-75
2021/06/22 10:27:23;;;;;;;8.80;3.85;;;16.80;77.10;;;;;;4960574;28;20035;-77
2021/06/22 10:29:53;;;;;;;7.82;3.50;;;16.80;76.40;;;;;;4958341;29;20483;-74
2021/06/22 10:32:21;;;;;;;8.60;2.90;;;16.80;76.70;;;;;;4955963;28;20082;-77
2021/06/22 10:34:48;;;;;;;8.00;3.47;;;16.80;76.70;;;;;;4957412;28;20055;-72
2021/06/22 10:37:29;;;;;;;7.32;3.17;;;16.70;76.70;;;;;;4957420;29;20031;-73
2021/06/22 10:40:03;;;;;;;10.27;3.78;;;16.80;76.60;;;;;;4959446;28;20038;-73
2021/06/22 10:42:50;;;;;;;8.63;4.20;;;16.80;76.70;;;;;;4959463;29;20019;-74
2021/06/22 10:45:16;;;;;;;6.00;3.03;;;16.80;76.40;;;;;;4958891;28;20031;-76
2021/06/22 10:47:44;;;;;;;30.25;22.23;;;16.80;76.50;;;;;;4958172;29;20031;-77
2021/06/22 10:50:16;;;;;;;20.30;14.02;;;16.80;76.30;;;;;;4958114;28;20031;-78
2021/06/22 10:52:42;;;;;;;29.02;18.90;;;16.80;76.50;;;;;;4957622;29;20031;-74
2021/06/22 10:55:19;;;;;;;9.57;4.10;;;16.80;76.80;;;;;;4957829;28;20047;-75
2021/06/22 10:58:06;;;;;;;10.88;4.00;;;16.80;77.10;;;;;;4949707;29;20027;-74
2021/06/22 11:00:48;;;;;;;8.38;4.07;;;16.90;76.80;;;;;;4950294;29;20031;-76
2021/06/22 11:03:29;;;;;;;6.83;4.10;;;16.90;76.10;;;;;;4957715;28;20166;-76
2021/06/22 11:06:13;;;;;;;8.63;4.05;;;16.90;75.70;;;;;;4957599;29;20023;-76
2021/06/22 11:08:41;;;;;;;7.75;3.63;;;16.90;76.50;;;;;;4958179;29;20171;-77
2021/06/22 11:11:07;;;;;;;8.38;3.35;;;17.00;77.00;;;;;;4959429;28;20086;-77
2021/06/22 11:13:57;;;;;;;7.18;3.08;;;17.00;76.60;;;;;;4958736;28;20035;-75
2021/06/22 11:16:23;;;;;;;6.40;3.03;;;17.00;76.10;;;;;;4958669;28;20099;-75
2021/06/22 11:21:21;;;;;;;7.30;3.00;;;17.10;75.80;;;;;;4959064;29;20023;-76
2021/06/22 11:24:10;;;;;;;6.90;2.80;;;17.10;75.80;;;;;;4950165;29;20055;-73
2021/06/22 11:26:45;;;;;;;8.43;3.00;;;17.10;75.10;;;;;;4954375;29;20030;-74
2021/06/22 11:29:13;;;;;;;7.38;3.45;;;17.10;75.40;;;;;;4959034;28;20059;-74
2021/06/22 11:31:43;;;;;;;6.05;2.97;;;17.10;75.60;;;;;;4959200;28;20470;-75
2021/06/22 11:34:22;;;;;;;6.32;3.03;;;17.10;75.70;;;;;;4958101;28;20042;-75
2021/06/22 11:37:20;;;;;;;8.75;3.60;;;17.20;75.30;;;;;;4958713;29;20043;-74
2021/06/22 11:40:00;;;;;;;7.35;3.10;;;17.20;75.30;;;;;;4946361;28;20043;-74
2021/06/22 11:42:26;;;;;;;6.60;3.80;;;17.20;74.80;;;;;;4958421;28;20058;-75
2021/06/22 11:44:56;;;;;;;8.82;3.00;;;17.10;75.10;;;;;;4959010;28;20039;-74
2021/06/22 11:47:25;;;;;;;6.47;2.88;;;17.20;75.30;;;;;;4959038;28;20042;-74
2021/06/22 11:49:58;;;;;;;5.60;3.17;;;17.20;75.10;;;;;;4956409;29;20051;-74
2021/06/22 11:52:37;;;;;;;5.88;3.50;;;17.10;74.90;;;;;;4958537;28;20027;-74
2021/06/22 11:55:14;;;;;;;8.40;3.70;;;17.10;74.50;;;;;;4958927;28;20398;-74
2021/06/22 11:57:49;;;;;;;6.10;3.13;;;17.10;74.40;;;;;;4958508;28;20039;-74
2021/06/22 12:00:19;;;;;;;6.57;3.58;;;17.00;74.10;;;;;;4958797;28;20106;-75
2021/06/22 12:02:56;;;;;;;8.07;3.67;;;17.00;74.40;;;;;;4957534;29;20019;-75
2021/06/22 12:05:24;;;;;;;8.32;3.83;;;17.00;74.60;;;;;;4957725;29;20555;-75
2021/06/22 12:07:53;;;;;;;7.22;3.55;;;16.90;74.50;;;;;;4951196;29;20039;-75
2021/06/22 12:10:39;;;;;;;7.63;3.97;;;17.00;74.80;;;;;;4958362;29;20058;-75
2021/06/22 12:13:05;;;;;;;9.38;3.60;;;17.00;75.00;;;;;;4955107;28;20059;-77
2021/06/22 12:15:36;;;;;;;8.45;4.13;;;16.90;74.00;;;;;;4960112;29;20027;-75
2021/06/22 12:18:02;;;;;;;10.70;4.85;;;16.90;74.40;;;;;;4960679;29;20498;-75
2021/06/22 12:20:32;;;;;;;7.30;3.80;;;16.80;74.20;;;;;;4962101;28;20495;-77
2021/06/22 12:23:06;;;;;;;8.18;3.95;;;16.80;74.30;;;;;;4961256;28;20019;-75
2021/06/22 12:25:47;;;;;;;8.57;4.13;;;16.80;74.00;;;;;;4961021;29;20560;-75
2021/06/22 12:28:14;;;;;;;7.85;4.60;;;16.70;73.90;;;;;;4960629;28;20031;-76
2021/06/22 12:30:47;;;;;;;7.03;4.03;;;16.80;74.40;;;;;;4961462;28;20498;-74
2021/06/22 12:33:18;;;;;;;7.60;4.55;;;16.70;74.10;;;;;;4959958;29;20037;-79
2021/06/22 12:35:49;;;;;;;10.20;4.93;;;16.70;74.40;;;;;;4959251;29;20451;-75
2021/06/22 12:38:18;;;;;;;8.45;5.32;;;16.70;74.40;;;;;;4958954;28;20066;-79
2021/06/22 12:40:53;;;;;;;10.27;4.70;;;16.70;74.50;;;;;;4960455;29;20035;-81
2021/06/22 12:43:20;;;;;;;8.23;5.05;;;16.70;74.10;;;;;;4960751;29;20126;-81
2021/06/22 12:46:00;;;;;;;7.75;4.88;;;16.60;74.30;;;;;;4958982;29;20028;-75
2021/06/22 12:48:26;;;;;;;10.50;5.07;;;16.70;74.70;;;;;;4961276;28;20406;-74